sensor_id;sensor_type;location;lat;lon;timestamp;temperature;humidity
52903;DHT22;38765;53.176;7.090;2022-09-09T00:00:33;15.00;99.90
52903;DHT22;38765;53.176;7.090;2022-09-09T00:03:18;15.00;99.90
52903;DHT22;38765;53.176;7.090;2022-09-09T00:09:10;14.90;99.90
52903;DHT22;38765;53.176;7.090;2022-09-09T00:11:45;14.90;99.90
52903;DHT22;38765;53.176;7.090;2022-09-09T00:14:27;14.80;99.90
52903;DHT22;38765;53.176;7.090;2022-09-09T00:17:11;14.80;99.90
52903;DHT22;38765;53.176;7.090;2022-09-09T00:22:18;14.80;99.90
52903;DHT22;38765;53.176;7.090;2022-09-09T00:24:52;14.80;99.90
52903;DHT22;38765;53.176;7.090;2022-09-09T00:27:44;14.70;99.90
52903;DHT22;38765;53.176;7.090;2022-09-09T00:30:21;14.70;99.90
52903;DHT22;38765;53.176;7.090;2022-09-09T00:32:59;14.60;99.90
52903;DHT22;38765;53.176;7.090;2022-09-09T00:35:33;14.60;99.90
52903;DHT22;38765;53.176;7.090;2022-09-09T00:38:15;14.60;99.90
52903;DHT22;38765;53.176;7.090;2022-09-09T00:43:37;14.50;99.90
52903;DHT22;38765;53.176;7.090;2022-09-09T00:49:00;14.50;99.90
52903;DHT22;38765;53.176;7.090;2022-09-09T00:51:38;14.50;99.90
52903;DHT22;38765;53.176;7.090;2022-09-09T00:57:14;14.50;99.90
52903;DHT22;38765;53.176;7.090;2022-09-09T00:59:46;14.40;99.90
52903;DHT22;38765;53.176;7.090;2022-09-09T01:02:28;14.40;99.90
52903;DHT22;38765;53.176;7.090;2022-09-09T01:04:55;14.40;99.90
52903;DHT22;38765;53.176;7.090;2022-09-09T01:07:23;14.40;99.90
52903;DHT22;38765;53.176;7.090;2022-09-09T01:10:00;14.40;99.90
52903;DHT22;38765;53.176;7.090;2022-09-09T01:12:41;14.40;99.90
52903;DHT22;38765;53.176;7.090;2022-09-09T01:15:22;14.30;99.90
52903;DHT22;38765;53.176;7.090;2022-09-09T01:18:12;14.30;99.90
52903;DHT22;38765;53.176;7.090;2022-09-09T01:23:41;14.30;99.90
52903;DHT22;38765;53.176;7.090;2022-09-09T01:26:32;14.30;99.90
52903;DHT22;38765;53.176;7.090;2022-09-09T01:28:59;14.30;99.90
52903;DHT22;38765;53.176;7.090;2022-09-09T01:31:52;14.30;99.90
52903;DHT22;38765;53.176;7.090;2022-09-09T01:34:22;14.20;99.90
52903;DHT22;38765;53.176;7.090;2022-09-09T01:37:08;14.20;99.90
52903;DHT22;38765;53.176;7.090;2022-09-09T01:39:36;14.20;99.90
52903;DHT22;38765;53.176;7.090;2022-09-09T01:42:03;14.20;99.90
52903;DHT22;38765;53.176;7.090;2022-09-09T01:44:30;14.20;99.90
52903;DHT22;38765;53.176;7.090;2022-09-09T01:46:56;14.10;99.90
52903;DHT22;38765;53.176;7.090;2022-09-09T01:49:23;14.10;99.90
52903;DHT22;38765;53.176;7.090;2022-09-09T01:51:54;14.10;99.90
52903;DHT22;38765;53.176;7.090;2022-09-09T01:54:21;14.10;99.90
52903;DHT22;38765;53.176;7.090;2022-09-09T01:57:18;14.10;99.90
52903;DHT22;38765;53.176;7.090;2022-09-09T02:05:35;14.00;99.90
52903;DHT22;38765;53.176;7.090;2022-09-09T02:08:07;14.10;99.90
52903;DHT22;38765;53.176;7.090;2022-09-09T02:13:11;14.00;99.90
52903;DHT22;38765;53.176;7.090;2022-09-09T02:15:57;14.10;99.90
52903;DHT22;38765;53.176;7.090;2022-09-09T02:21:17;14.00;99.90
52903;DHT22;38765;53.176;7.090;2022-09-09T02:23:44;14.10;99.90
52903;DHT22;38765;53.176;7.090;2022-09-09T02:26:13;14.10;99.90
52903;DHT22;38765;53.176;7.090;2022-09-09T02:28:46;14.10;99.90
52903;DHT22;38765;53.176;7.090;2022-09-09T02:31:15;14.10;99.90
52903;DHT22;38765;53.176;7.090;2022-09-09T02:33:46;14.10;99.90
52903;DHT22;38765;53.176;7.090;2022-09-09T02:36:14;14.10;99.90
52903;DHT22;38765;53.176;7.090;2022-09-09T02:38:46;14.10;99.90
52903;DHT22;38765;53.176;7.090;2022-09-09T02:41:17;14.10;99.90
52903;DHT22;38765;53.176;7.090;2022-09-09T02:43:44;14.10;99.90
52903;DHT22;38765;53.176;7.090;2022-09-09T02:49:16;14.10;99.90
52903;DHT22;38765;53.176;7.090;2022-09-09T02:54:33;14.20;99.90
52903;DHT22;38765;53.176;7.090;2022-09-09T02:57:08;14.20;99.90
52903;DHT22;38765;53.176;7.090;2022-09-09T02:59:36;14.20;99.90
52903;DHT22;38765;53.176;7.090;2022-09-09T03:02:02;14.20;99.90
52903;DHT22;38765;53.176;7.090;2022-09-09T03:04:28;14.20;99.90
52903;DHT22;38765;53.176;7.090;2022-09-09T03:06:54;14.20;99.90
52903;DHT22;38765;53.176;7.090;2022-09-09T03:09:20;14.20;99.90
52903;DHT22;38765;53.176;7.090;2022-09-09T03:11:45;14.20;99.90
52903;DHT22;38765;53.176;7.090;2022-09-09T03:14:11;14.20;99.90
52903;DHT22;38765;53.176;7.090;2022-09-09T03:16:37;14.20;99.90
52903;DHT22;38765;53.176;7.090;2022-09-09T03:19:02;14.20;99.90
52903;DHT22;38765;53.176;7.090;2022-09-09T03:21:28;14.20;99.90
52903;DHT22;38765;53.176;7.090;2022-09-09T03:23:54;14.20;99.90
52903;DHT22;38765;53.176;7.090;2022-09-09T03:26:21;14.20;99.90
52903;DHT22;38765;53.176;7.090;2022-09-09T03:28:46;14.20;99.90
52903;DHT22;38765;53.176;7.090;2022-09-09T03:31:12;14.30;99.90
52903;DHT22;38765;53.176;7.090;2022-09-09T03:33:38;14.30;99.90
52903;DHT22;38765;53.176;7.090;2022-09-09T03:36:05;14.30;99.90
52903;DHT22;38765;53.176;7.090;2022-09-09T03:38:32;14.30;99.90
52903;DHT22;38765;53.176;7.090;2022-09-09T03:40:59;14.30;99.90
52903;DHT22;38765;53.176;7.090;2022-09-09T03:43:28;14.30;99.90
52903;DHT22;38765;53.176;7.090;2022-09-09T03:45:55;14.30;99.90
52903;DHT22;38765;53.176;7.090;2022-09-09T03:48:24;14.40;99.90
52903;DHT22;38765;53.176;7.090;2022-09-09T03:50:52;14.40;99.90
52903;DHT22;38765;53.176;7.090;2022-09-09T03:53:20;14.40;99.90
52903;DHT22;38765;53.176;7.090;2022-09-09T03:55:47;14.40;99.90
52903;DHT22;38765;53.176;7.090;2022-09-09T03:58:14;14.40;99.90
52903;DHT22;38765;53.176;7.090;2022-09-09T04:00:40;14.40;99.90
52903;DHT22;38765;53.176;7.090;2022-09-09T04:03:09;14.40;99.90
52903;DHT22;38765;53.176;7.090;2022-09-09T04:05:35;14.50;99.90
52903;DHT22;38765;53.176;7.090;2022-09-09T04:08:00;14.50;99.90
52903;DHT22;38765;53.176;7.090;2022-09-09T04:10:26;14.50;99.90
52903;DHT22;38765;53.176;7.090;2022-09-09T04:12:52;14.50;99.90
52903;DHT22;38765;53.176;7.090;2022-09-09T04:15:18;14.50;99.90
52903;DHT22;38765;53.176;7.090;2022-09-09T04:17:46;14.60;99.90
52903;DHT22;38765;53.176;7.090;2022-09-09T04:20:12;14.60;99.90
52903;DHT22;38765;53.176;7.090;2022-09-09T04:22:38;14.60;99.90
52903;DHT22;38765;53.176;7.090;2022-09-09T04:25:05;14.60;99.90
52903;DHT22;38765;53.176;7.090;2022-09-09T04:27:31;14.70;99.90
52903;DHT22;38765;53.176;7.090;2022-09-09T04:29:57;14.70;99.90
52903;DHT22;38765;53.176;7.090;2022-09-09T04:32:23;14.60;99.90
52903;DHT22;38765;53.176;7.090;2022-09-09T04:34:52;14.70;99.90
52903;DHT22;38765;53.176;7.090;2022-09-09T04:37:17;14.60;99.90
52903;DHT22;38765;53.176;7.090;2022-09-09T04:39:43;14.60;99.90
52903;DHT22;38765;53.176;7.090;2022-09-09T04:42:09;14.60;99.90
52903;DHT22;38765;53.176;7.090;2022-09-09T04:44:34;14.60;99.90
52903;DHT22;38765;53.176;7.090;2022-09-09T04:47:00;14.60;99.90
52903;DHT22;38765;53.176;7.090;2022-09-09T04:49:26;14.60;99.90
52903;DHT22;38765;53.176;7.090;2022-09-09T04:51:52;14.70;99.90
52903;DHT22;38765;53.176;7.090;2022-09-09T04:54:18;14.70;99.90
52903;DHT22;38765;53.176;7.090;2022-09-09T04:56:44;14.60;99.90
52903;DHT22;38765;53.176;7.090;2022-09-09T04:59:10;14.60;99.90
52903;DHT22;38765;53.176;7.090;2022-09-09T05:01:35;14.60;99.90
52903;DHT22;38765;53.176;7.090;2022-09-09T05:04:02;14.60;99.90
52903;DHT22;38765;53.176;7.090;2022-09-09T05:06:28;14.60;99.90
52903;DHT22;38765;53.176;7.090;2022-09-09T05:08:57;14.60;99.90
52903;DHT22;38765;53.176;7.090;2022-09-09T05:11:29;14.60;99.90
52903;DHT22;38765;53.176;7.090;2022-09-09T05:13:55;14.60;99.90
52903;DHT22;38765;53.176;7.090;2022-09-09T05:16:24;14.60;99.90
52903;DHT22;38765;53.176;7.090;2022-09-09T05:18:50;14.60;99.90
52903;DHT22;38765;53.176;7.090;2022-09-09T05:21:21;14.60;99.90
52903;DHT22;38765;53.176;7.090;2022-09-09T05:23:47;14.60;99.90
52903;DHT22;38765;53.176;7.090;2022-09-09T05:26:15;14.60;99.90
52903;DHT22;38765;53.176;7.090;2022-09-09T05:28:41;14.60;99.90
52903;DHT22;38765;53.176;7.090;2022-09-09T05:31:09;14.60;99.90
52903;DHT22;38765;53.176;7.090;2022-09-09T05:33:38;14.60;99.90
52903;DHT22;38765;53.176;7.090;2022-09-09T05:36:07;14.60;99.90
52903;DHT22;38765;53.176;7.090;2022-09-09T05:38:34;14.60;99.90
52903;DHT22;38765;53.176;7.090;2022-09-09T05:41:01;14.50;99.90
52903;DHT22;38765;53.176;7.090;2022-09-09T05:43:28;14.60;99.90
52903;DHT22;38765;53.176;7.090;2022-09-09T05:46:04;14.60;99.90
52903;DHT22;38765;53.176;7.090;2022-09-09T05:48:32;14.50;99.90
52903;DHT22;38765;53.176;7.090;2022-09-09T05:50:58;14.50;99.90
52903;DHT22;38765;53.176;7.090;2022-09-09T05:53:25;14.60;99.90
52903;DHT22;38765;53.176;7.090;2022-09-09T05:58:35;14.50;99.90
52903;DHT22;38765;53.176;7.090;2022-09-09T06:01:08;14.50;99.90
52903;DHT22;38765;53.176;7.090;2022-09-09T06:03:36;14.60;99.90
52903;DHT22;38765;53.176;7.090;2022-09-09T06:06:15;14.50;99.90
52903;DHT22;38765;53.176;7.090;2022-09-09T06:08:43;14.60;99.90
52903;DHT22;38765;53.176;7.090;2022-09-09T06:13:38;14.60;99.90
52903;DHT22;38765;53.176;7.090;2022-09-09T06:16:11;14.60;99.90
52903;DHT22;38765;53.176;7.090;2022-09-09T06:18:41;14.60;99.90
52903;DHT22;38765;53.176;7.090;2022-09-09T06:21:19;14.60;99.90
52903;DHT22;38765;53.176;7.090;2022-09-09T06:23:46;14.70;99.90
52903;DHT22;38765;53.176;7.090;2022-09-09T06:26:19;14.70;99.90
52903;DHT22;38765;53.176;7.090;2022-09-09T06:28:46;14.70;99.90
52903;DHT22;38765;53.176;7.090;2022-09-09T06:31:14;14.70;99.90
52903;DHT22;38765;53.176;7.090;2022-09-09T06:33:42;14.70;99.90
52903;DHT22;38765;53.176;7.090;2022-09-09T06:36:17;14.70;99.90
52903;DHT22;38765;53.176;7.090;2022-09-09T06:38:43;14.80;99.90
52903;DHT22;38765;53.176;7.090;2022-09-09T06:41:14;14.80;99.90
52903;DHT22;38765;53.176;7.090;2022-09-09T06:43:58;14.80;99.90
52903;DHT22;38765;53.176;7.090;2022-09-09T06:46:29;14.80;99.90
52903;DHT22;38765;53.176;7.090;2022-09-09T06:48:57;14.90;99.90
52903;DHT22;38765;53.176;7.090;2022-09-09T06:51:29;14.90;99.90
52903;DHT22;38765;53.176;7.090;2022-09-09T06:54:00;14.90;99.90
52903;DHT22;38765;53.176;7.090;2022-09-09T06:56:35;14.90;99.90
52903;DHT22;38765;53.176;7.090;2022-09-09T06:59:03;14.90;99.90
52903;DHT22;38765;53.176;7.090;2022-09-09T07:01:34;14.90;99.90
52903;DHT22;38765;53.176;7.090;2022-09-09T07:04:04;15.00;99.90
52903;DHT22;38765;53.176;7.090;2022-09-09T07:06:35;15.20;99.90
52903;DHT22;38765;53.176;7.090;2022-09-09T07:09:09;15.10;99.90
52903;DHT22;38765;53.176;7.090;2022-09-09T07:11:43;15.10;99.90
52903;DHT22;38765;53.176;7.090;2022-09-09T07:14:10;15.20;99.90
52903;DHT22;38765;53.176;7.090;2022-09-09T07:16:40;15.20;99.90
52903;DHT22;38765;53.176;7.090;2022-09-09T07:19:07;15.30;99.90
52903;DHT22;38765;53.176;7.090;2022-09-09T07:21:38;15.30;99.90
52903;DHT22;38765;53.176;7.090;2022-09-09T07:24:06;15.40;99.90
52903;DHT22;38765;53.176;7.090;2022-09-09T07:26:43;15.40;99.90
52903;DHT22;38765;53.176;7.090;2022-09-09T07:29:44;15.50;99.90
52903;DHT22;38765;53.176;7.090;2022-09-09T07:32:38;15.50;99.90
52903;DHT22;38765;53.176;7.090;2022-09-09T07:35:18;15.60;99.90
52903;DHT22;38765;53.176;7.090;2022-09-09T07:38:03;15.40;99.90
52903;DHT22;38765;53.176;7.090;2022-09-09T07:40:35;15.70;99.90
52903;DHT22;38765;53.176;7.090;2022-09-09T07:43:01;15.70;99.90
52903;DHT22;38765;53.176;7.090;2022-09-09T07:45:27;15.80;99.90
52903;DHT22;38765;53.176;7.090;2022-09-09T07:48:01;15.90;99.90
52903;DHT22;38765;53.176;7.090;2022-09-09T07:50:28;16.00;99.90
52903;DHT22;38765;53.176;7.090;2022-09-09T07:53:01;16.10;99.90
52903;DHT22;38765;53.176;7.090;2022-09-09T07:55:30;16.20;99.90
52903;DHT22;38765;53.176;7.090;2022-09-09T07:58:01;16.30;99.90
52903;DHT22;38765;53.176;7.090;2022-09-09T08:00:36;16.30;99.90
52903;DHT22;38765;53.176;7.090;2022-09-09T08:03:11;16.40;99.90
52903;DHT22;38765;53.176;7.090;2022-09-09T08:05:42;16.30;99.90
52903;DHT22;38765;53.176;7.090;2022-09-09T08:08:28;16.60;99.90
52903;DHT22;38765;53.176;7.090;2022-09-09T08:11:08;16.60;99.90
52903;DHT22;38765;53.176;7.090;2022-09-09T08:13:36;16.70;99.90
52903;DHT22;38765;53.176;7.090;2022-09-09T08:16:16;16.80;99.90
52903;DHT22;38765;53.176;7.090;2022-09-09T08:18:49;16.90;99.90
52903;DHT22;38765;53.176;7.090;2022-09-09T08:21:30;17.10;99.90
52903;DHT22;38765;53.176;7.090;2022-09-09T08:23:58;16.90;99.90
52903;DHT22;38765;53.176;7.090;2022-09-09T08:26:57;16.90;99.90
52903;DHT22;38765;53.176;7.090;2022-09-09T08:29:30;16.90;99.90
52903;DHT22;38765;53.176;7.090;2022-09-09T08:32:04;17.00;99.90
52903;DHT22;38765;53.176;7.090;2022-09-09T08:34:30;17.10;99.90
52903;DHT22;38765;53.176;7.090;2022-09-09T08:36:59;17.10;99.90
52903;DHT22;38765;53.176;7.090;2022-09-09T08:39:29;17.20;99.90
52903;DHT22;38765;53.176;7.090;2022-09-09T08:45:21;17.40;99.90
52903;DHT22;38765;53.176;7.090;2022-09-09T08:51:01;17.50;99.90
52903;DHT22;38765;53.176;7.090;2022-09-09T08:53:41;17.50;99.90
52903;DHT22;38765;53.176;7.090;2022-09-09T08:56:32;17.50;99.90
52903;DHT22;38765;53.176;7.090;2022-09-09T08:59:34;17.50;99.90
52903;DHT22;38765;53.176;7.090;2022-09-09T09:02:39;17.50;99.90
52903;DHT22;38765;53.176;7.090;2022-09-09T09:11:04;17.50;99.90
52903;DHT22;38765;53.176;7.090;2022-09-09T09:14:07;17.50;99.90
52903;DHT22;38765;53.176;7.090;2022-09-09T09:19:23;17.50;99.90
52903;DHT22;38765;53.176;7.090;2022-09-09T09:22:05;17.60;99.90
52903;DHT22;38765;53.176;7.090;2022-09-09T09:28:21;17.80;99.90
52903;DHT22;38765;53.176;7.090;2022-09-09T09:30:41;17.80;99.90
52903;DHT22;38765;53.176;7.090;2022-09-09T09:36:12;18.00;99.90
52903;DHT22;38765;53.176;7.090;2022-09-09T09:38:57;18.00;99.90
52903;DHT22;38765;53.176;7.090;2022-09-09T09:47:17;18.30;99.90
52903;DHT22;38765;53.176;7.090;2022-09-09T09:50:03;18.30;99.90
52903;DHT22;38765;53.176;7.090;2022-09-09T09:52:33;18.30;99.90
52903;DHT22;38765;53.176;7.090;2022-09-09T09:55:03;18.40;99.90
52903;DHT22;38765;53.176;7.090;2022-09-09T09:57:32;18.40;99.90
52903;DHT22;38765;53.176;7.090;2022-09-09T10:00:11;18.50;99.90
52903;DHT22;38765;53.176;7.090;2022-09-09T10:02:40;18.50;99.90
52903;DHT22;38765;53.176;7.090;2022-09-09T10:05:44;18.70;99.90
52903;DHT22;38765;53.176;7.090;2022-09-09T10:08:23;18.70;99.90
52903;DHT22;38765;53.176;7.090;2022-09-09T10:19:12;18.90;99.90
52903;DHT22;38765;53.176;7.090;2022-09-09T10:25:14;18.90;99.90
52903;DHT22;38765;53.176;7.090;2022-09-09T10:30:38;18.90;99.90
52903;DHT22;38765;53.176;7.090;2022-09-09T10:33:49;18.90;99.90
52903;DHT22;38765;53.176;7.090;2022-09-09T10:36:23;19.10;99.90
52903;DHT22;38765;53.176;7.090;2022-09-09T10:39:04;19.20;99.90
52903;DHT22;38765;53.176;7.090;2022-09-09T10:41:55;19.20;99.90
52903;DHT22;38765;53.176;7.090;2022-09-09T10:50:11;19.20;99.90
52903;DHT22;38765;53.176;7.090;2022-09-09T10:55:45;19.20;99.90
52903;DHT22;38765;53.176;7.090;2022-09-09T10:58:51;19.30;99.90
52903;DHT22;38765;53.176;7.090;2022-09-09T11:03:59;19.50;99.90
52903;DHT22;38765;53.176;7.090;2022-09-09T11:06:32;19.50;99.90
52903;DHT22;38765;53.176;7.090;2022-09-09T11:09:02;19.60;99.90
52903;DHT22;38765;53.176;7.090;2022-09-09T11:11:34;19.70;99.90
52903;DHT22;38765;53.176;7.090;2022-09-09T11:14:29;19.80;99.90
52903;DHT22;38765;53.176;7.090;2022-09-09T11:17:03;19.80;99.90
52903;DHT22;38765;53.176;7.090;2022-09-09T11:19:36;19.80;99.90
52903;DHT22;38765;53.176;7.090;2022-09-09T11:25:23;19.80;99.90
52903;DHT22;38765;53.176;7.090;2022-09-09T11:28:09;19.80;99.90
52903;DHT22;38765;53.176;7.090;2022-09-09T11:36:43;20.10;99.90
52903;DHT22;38765;53.176;7.090;2022-09-09T11:44:41;20.30;99.90
52903;DHT22;38765;53.176;7.090;2022-09-09T11:47:23;20.40;99.90
52903;DHT22;38765;53.176;7.090;2022-09-09T11:50:26;20.50;99.90
52903;DHT22;38765;53.176;7.090;2022-09-09T11:55:42;20.70;99.90
52903;DHT22;38765;53.176;7.090;2022-09-09T12:03:08;20.80;99.90
52903;DHT22;38765;53.176;7.090;2022-09-09T12:06:07;20.70;99.90
52903;DHT22;38765;53.176;7.090;2022-09-09T12:08:41;20.60;99.90
52903;DHT22;38765;53.176;7.090;2022-09-09T12:11:09;20.50;99.90
52903;DHT22;38765;53.176;7.090;2022-09-09T12:13:36;20.60;99.90
52903;DHT22;38765;53.176;7.090;2022-09-09T12:16:29;20.40;99.90
52903;DHT22;38765;53.176;7.090;2022-09-09T12:19:18;20.30;99.90
52903;DHT22;38765;53.176;7.090;2022-09-09T12:22:22;20.40;99.90
52903;DHT22;38765;53.176;7.090;2022-09-09T12:30:33;21.10;99.90
52903;DHT22;38765;53.176;7.090;2022-09-09T12:33:02;21.10;99.90
52903;DHT22;38765;53.176;7.090;2022-09-09T12:35:28;21.00;99.90
52903;DHT22;38765;53.176;7.090;2022-09-09T12:37:59;21.00;99.90
52903;DHT22;38765;53.176;7.090;2022-09-09T12:40:32;21.10;99.90
52903;DHT22;38765;53.176;7.090;2022-09-09T12:43:01;21.20;99.90
52903;DHT22;38765;53.176;7.090;2022-09-09T12:45:32;21.20;99.90
52903;DHT22;38765;53.176;7.090;2022-09-09T12:48:03;21.20;99.90
52903;DHT22;38765;53.176;7.090;2022-09-09T12:50:32;21.10;99.90
52903;DHT22;38765;53.176;7.090;2022-09-09T12:53:02;21.00;99.90
52903;DHT22;38765;53.176;7.090;2022-09-09T12:55:32;21.00;99.90
52903;DHT22;38765;53.176;7.090;2022-09-09T12:58:00;20.90;99.90
52903;DHT22;38765;53.176;7.090;2022-09-09T13:00:29;20.80;99.90
52903;DHT22;38765;53.176;7.090;2022-09-09T13:03:14;20.80;99.90
52903;DHT22;38765;53.176;7.090;2022-09-09T13:05:41;20.70;99.90
52903;DHT22;38765;53.176;7.090;2022-09-09T13:08:12;20.70;99.90
52903;DHT22;38765;53.176;7.090;2022-09-09T13:10:49;20.70;99.90
52903;DHT22;38765;53.176;7.090;2022-09-09T13:13:32;20.60;99.90
52903;DHT22;38765;53.176;7.090;2022-09-09T13:16:00;20.50;99.90
52903;DHT22;38765;53.176;7.090;2022-09-09T13:18:29;20.50;99.90
52903;DHT22;38765;53.176;7.090;2022-09-09T13:20:56;20.50;99.90
52903;DHT22;38765;53.176;7.090;2022-09-09T13:23:27;20.50;99.90
52903;DHT22;38765;53.176;7.090;2022-09-09T13:25:56;20.60;99.90
52903;DHT22;38765;53.176;7.090;2022-09-09T13:28:25;20.80;99.90
52903;DHT22;38765;53.176;7.090;2022-09-09T13:33:38;21.30;99.90
52903;DHT22;38765;53.176;7.090;2022-09-09T13:38:53;21.80;99.90
52903;DHT22;38765;53.176;7.090;2022-09-09T13:41:41;21.90;99.90
52903;DHT22;38765;53.176;7.090;2022-09-09T13:44:18;21.90;99.90
52903;DHT22;38765;53.176;7.090;2022-09-09T13:46:45;21.90;99.90
52903;DHT22;38765;53.176;7.090;2022-09-09T13:51:39;21.70;99.90
52903;DHT22;38765;53.176;7.090;2022-09-09T13:54:06;21.60;99.90
52903;DHT22;38765;53.176;7.090;2022-09-09T13:56:34;21.40;99.90
52903;DHT22;38765;53.176;7.090;2022-09-09T13:59:01;21.30;99.90
52903;DHT22;38765;53.176;7.090;2022-09-09T14:01:27;21.20;99.90
52903;DHT22;38765;53.176;7.090;2022-09-09T14:03:54;21.10;99.90
52903;DHT22;38765;53.176;7.090;2022-09-09T14:06:20;20.90;99.90
52903;DHT22;38765;53.176;7.090;2022-09-09T14:08:48;20.70;99.90
52903;DHT22;38765;53.176;7.090;2022-09-09T14:11:16;20.60;99.90
52903;DHT22;38765;53.176;7.090;2022-09-09T14:13:42;20.30;99.90
52903;DHT22;38765;53.176;7.090;2022-09-09T14:16:07;20.20;99.90
52903;DHT22;38765;53.176;7.090;2022-09-09T14:18:33;20.00;99.90
52903;DHT22;38765;53.176;7.090;2022-09-09T14:20:59;19.90;99.90
52903;DHT22;38765;53.176;7.090;2022-09-09T14:23:25;19.80;99.90
52903;DHT22;38765;53.176;7.090;2022-09-09T14:25:51;19.70;99.90
52903;DHT22;38765;53.176;7.090;2022-09-09T14:28:17;19.60;99.90
52903;DHT22;38765;53.176;7.090;2022-09-09T14:30:44;19.60;99.90
52903;DHT22;38765;53.176;7.090;2022-09-09T14:33:14;19.50;99.90
52903;DHT22;38765;53.176;7.090;2022-09-09T14:35:41;19.40;99.90
52903;DHT22;38765;53.176;7.090;2022-09-09T14:38:08;19.40;99.90
52903;DHT22;38765;53.176;7.090;2022-09-09T14:40:35;19.30;99.90
52903;DHT22;38765;53.176;7.090;2022-09-09T14:43:01;19.30;99.90
52903;DHT22;38765;53.176;7.090;2022-09-09T14:45:28;19.20;99.90
52903;DHT22;38765;53.176;7.090;2022-09-09T14:47:54;19.20;99.90
52903;DHT22;38765;53.176;7.090;2022-09-09T14:50:21;19.20;99.90
52903;DHT22;38765;53.176;7.090;2022-09-09T14:52:47;19.20;99.90
52903;DHT22;38765;53.176;7.090;2022-09-09T14:55:13;19.20;99.90
52903;DHT22;38765;53.176;7.090;2022-09-09T14:57:39;19.10;99.90
52903;DHT22;38765;53.176;7.090;2022-09-09T15:00:07;19.10;99.90
52903;DHT22;38765;53.176;7.090;2022-09-09T15:02:33;19.10;99.90
52903;DHT22;38765;53.176;7.090;2022-09-09T15:04:59;19.10;99.90
52903;DHT22;38765;53.176;7.090;2022-09-09T15:07:25;19.10;99.90
52903;DHT22;38765;53.176;7.090;2022-09-09T15:09:52;19.10;99.90
52903;DHT22;38765;53.176;7.090;2022-09-09T15:12:18;19.10;99.90
52903;DHT22;38765;53.176;7.090;2022-09-09T15:14:45;19.20;99.90
52903;DHT22;38765;53.176;7.090;2022-09-09T15:17:11;19.20;99.90
52903;DHT22;38765;53.176;7.090;2022-09-09T15:19:37;19.20;99.90
52903;DHT22;38765;53.176;7.090;2022-09-09T15:22:06;19.20;99.90
52903;DHT22;38765;53.176;7.090;2022-09-09T15:24:33;19.30;99.90
52903;DHT22;38765;53.176;7.090;2022-09-09T15:26:59;19.30;99.90
52903;DHT22;38765;53.176;7.090;2022-09-09T15:29:24;19.30;99.90
52903;DHT22;38765;53.176;7.090;2022-09-09T15:31:50;19.30;99.90
52903;DHT22;38765;53.176;7.090;2022-09-09T15:34:16;19.20;99.90
52903;DHT22;38765;53.176;7.090;2022-09-09T15:36:44;19.10;99.90
52903;DHT22;38765;53.176;7.090;2022-09-09T15:39:13;19.00;99.90
52903;DHT22;38765;53.176;7.090;2022-09-09T15:41:45;18.90;99.90
52903;DHT22;38765;53.176;7.090;2022-09-09T15:44:12;18.80;99.90
52903;DHT22;38765;53.176;7.090;2022-09-09T15:46:51;18.80;99.90
52903;DHT22;38765;53.176;7.090;2022-09-09T15:49:22;18.80;99.90
52903;DHT22;38765;53.176;7.090;2022-09-09T15:51:56;18.70;99.90
52903;DHT22;38765;53.176;7.090;2022-09-09T15:54:24;18.70;99.90
52903;DHT22;38765;53.176;7.090;2022-09-09T15:56:52;18.70;99.90
52903;DHT22;38765;53.176;7.090;2022-09-09T15:59:20;18.70;99.90
52903;DHT22;38765;53.176;7.090;2022-09-09T16:01:46;18.70;99.90
52903;DHT22;38765;53.176;7.090;2022-09-09T16:04:12;18.60;99.90
52903;DHT22;38765;53.176;7.090;2022-09-09T16:06:40;18.70;99.90
52903;DHT22;38765;53.176;7.090;2022-09-09T16:09:07;18.70;99.90
52903;DHT22;38765;53.176;7.090;2022-09-09T16:11:36;18.70;99.90
52903;DHT22;38765;53.176;7.090;2022-09-09T16:14:02;18.80;99.90
52903;DHT22;38765;53.176;7.090;2022-09-09T16:16:29;18.80;99.90
52903;DHT22;38765;53.176;7.090;2022-09-09T16:18:57;18.90;99.90
52903;DHT22;38765;53.176;7.090;2022-09-09T16:21:32;19.00;99.90
52903;DHT22;38765;53.176;7.090;2022-09-09T16:24:00;18.90;99.90
52903;DHT22;38765;53.176;7.090;2022-09-09T16:26:27;18.90;99.90
52903;DHT22;38765;53.176;7.090;2022-09-09T16:28:53;18.90;99.90
52903;DHT22;38765;53.176;7.090;2022-09-09T16:31:21;18.80;99.90
52903;DHT22;38765;53.176;7.090;2022-09-09T16:33:48;18.80;99.90
52903;DHT22;38765;53.176;7.090;2022-09-09T16:36:29;18.70;99.90
52903;DHT22;38765;53.176;7.090;2022-09-09T16:38:57;18.70;99.90
52903;DHT22;38765;53.176;7.090;2022-09-09T16:41:24;18.70;99.90
52903;DHT22;38765;53.176;7.090;2022-09-09T16:43:55;18.80;99.90
52903;DHT22;38765;53.176;7.090;2022-09-09T16:46:21;18.80;99.90
52903;DHT22;38765;53.176;7.090;2022-09-09T16:48:48;18.80;99.90
52903;DHT22;38765;53.176;7.090;2022-09-09T16:51:17;18.80;99.90
52903;DHT22;38765;53.176;7.090;2022-09-09T16:53:44;18.80;99.90
52903;DHT22;38765;53.176;7.090;2022-09-09T16:56:12;18.70;99.90
52903;DHT22;38765;53.176;7.090;2022-09-09T16:58:38;18.70;99.90
52903;DHT22;38765;53.176;7.090;2022-09-09T17:01:09;18.60;99.90
52903;DHT22;38765;53.176;7.090;2022-09-09T17:03:35;18.60;99.90
52903;DHT22;38765;53.176;7.090;2022-09-09T17:06:03;18.50;99.90
52903;DHT22;38765;53.176;7.090;2022-09-09T17:08:31;18.40;99.90
52903;DHT22;38765;53.176;7.090;2022-09-09T17:11:02;18.30;99.90
52903;DHT22;38765;53.176;7.090;2022-09-09T17:13:31;18.30;99.90
52903;DHT22;38765;53.176;7.090;2022-09-09T17:15:57;18.20;99.90
52903;DHT22;38765;53.176;7.090;2022-09-09T17:18:22;18.20;99.90
52903;DHT22;38765;53.176;7.090;2022-09-09T17:20:53;18.10;99.90
52903;DHT22;38765;53.176;7.090;2022-09-09T17:23:21;18.00;99.90
52903;DHT22;38765;53.176;7.090;2022-09-09T17:26:03;18.00;99.90
52903;DHT22;38765;53.176;7.090;2022-09-09T17:28:29;17.90;99.90
52903;DHT22;38765;53.176;7.090;2022-09-09T17:31:00;17.90;99.90
52903;DHT22;38765;53.176;7.090;2022-09-09T17:33:31;17.90;99.90
52903;DHT22;38765;53.176;7.090;2022-09-09T17:36:01;17.90;99.90
52903;DHT22;38765;53.176;7.090;2022-09-09T17:38:32;17.90;99.90
52903;DHT22;38765;53.176;7.090;2022-09-09T17:41:08;17.80;99.90
52903;DHT22;38765;53.176;7.090;2022-09-09T17:43:35;17.80;99.90
52903;DHT22;38765;53.176;7.090;2022-09-09T17:46:27;17.80;99.90
52903;DHT22;38765;53.176;7.090;2022-09-09T17:48:59;17.80;99.90
52903;DHT22;38765;53.176;7.090;2022-09-09T17:51:27;17.80;99.90
52903;DHT22;38765;53.176;7.090;2022-09-09T17:54:01;17.80;99.90
52903;DHT22;38765;53.176;7.090;2022-09-09T17:56:28;17.80;99.90
52903;DHT22;38765;53.176;7.090;2022-09-09T17:58:56;17.70;99.90
52903;DHT22;38765;53.176;7.090;2022-09-09T18:01:26;17.70;99.90
52903;DHT22;38765;53.176;7.090;2022-09-09T18:03:54;17.70;99.90
52903;DHT22;38765;53.176;7.090;2022-09-09T18:06:25;17.70;99.90